Time;durP1;ratioP1;P1;durP2;ratioP2;P2;SDS_P1;SDS_P2;PMS_P1;PMS_P2;Temp;Humidity;BMP_temperature;BMP_pressure;BME280_temperature;BME280_humidity;BME280_pressure;Samples;Min_cycle;Max_cycle;Signal;HPM_P1;HPM_P2
2022/05/05 00:00:16;;;;;;;3.30;2.00;;;;;;;9.61;37.16;99757.25;5018890;28;20049;-75
2022/05/05 00:02:42;;;;;;;5.70;2.20;;;;;;;9.55;36.86;99760.50;5018978;28;20041;-75
2022/05/05 00:05:08;;;;;;;3.93;2.00;;;;;;;9.58;36.96;99762.06;5051229;28;20039;-76
2022/05/05 00:07:36;;;;;;;8.03;1.83;;;;;;;9.77;36.79;99768.06;5018143;28;20513;-76
2022/05/05 00:14:23;;;;;;;4.03;1.90;;;;;;;9.62;36.82;99776.66;5018050;28;20056;-75
2022/05/05 00:15:33;;;;;;;3.33;1.70;;;;;;;9.29;37.11;99745.44;5019628;28;20052;-76
2022/05/05 00:17:58;;;;;;;4.80;2.00;;;;;;;9.47;37.24;99778.97;5033766;28;20428;-74
2022/05/05 00:20:24;;;;;;;3.23;1.80;;;;;;;9.43;37.30;99782.91;5034534;28;20103;-76
2022/05/05 00:22:50;;;;;;;3.70;1.80;;;;;;;9.38;37.52;99794.94;5050182;28;20048;-75
2022/05/05 00:25:15;;;;;;;2.50;1.70;;;;;;;9.38;37.29;99798.41;5033897;28;20484;-76
2022/05/05 00:27:41;;;;;;;3.20;1.60;;;;;;;9.33;37.42;99802.50;5017683;28;20124;-76
2022/05/05 00:30:08;;;;;;;6.23;1.70;;;;;;;9.47;37.05;99805.47;5051602;28;20045;-77
2022/05/05 00:32:39;;;;;;;4.47;1.87;;;;;;;9.42;37.25;99791.84;5016837;28;20132;-76
2022/05/05 00:35:06;;;;;;;2.97;1.60;;;;;;;9.37;37.36;99799.41;5016893;28;20492;-76
2022/05/05 00:37:31;;;;;;;2.97;1.87;;;;;;;9.34;37.36;99806.81;5016929;28;20037;-75
2022/05/05 00:39:57;;;;;;;2.00;1.70;;;;;;;9.15;37.44;99781.22;5000661;28;20041;-75
2022/05/05 00:42:23;;;;;;;3.20;2.00;;;;;;;9.27;37.39;99806.53;5034265;28;20072;-76
2022/05/05 00:44:48;;;;;;;3.00;1.70;;;;;;;9.16;37.48;99795.31;5034836;28;20044;-76
2022/05/05 00:47:16;;;;;;;3.37;1.93;;;;;;;9.23;37.75;99810.47;5034343;28;20049;-75
2022/05/05 00:49:45;;;;;;;4.80;2.80;;;;;;;9.15;37.82;99813.00;5018469;28;20473;-75
2022/05/05 00:52:11;;;;;;;6.37;1.97;;;;;;;9.05;38.20;99817.53;5017030;28;20045;-75
2022/05/05 00:54:38;;;;;;;3.73;2.10;;;;;;;8.87;38.36;99795.41;5049791;28;20056;-74
2022/05/05 00:57:05;;;;;;;7.20;2.70;;;;;;;8.84;38.46;99798.31;5033270;28;20060;-75
2022/05/05 00:59:31;;;;;;;7.33;2.47;;;;;;;8.83;38.76;99823.13;5033159;28;20193;-73
2022/05/05 01:01:56;;;;;;;6.40;2.43;;;;;;;8.55;39.32;99797.53;5033497;28;20667;-74
2022/05/05 01:04:23;;;;;;;3.40;2.23;;;;;;;8.70;39.12;99837.66;5049466;28;20044;-74
2022/05/05 01:06:49;;;;;;;4.90;2.70;;;;;;;8.48;39.34;99815.81;5032824;28;20078;-74
2022/05/05 01:09:14;;;;;;;6.67;2.40;;;;;;;8.59;39.22;99846.59;5032950;28;20525;-75
2022/05/05 01:11:40;;;;;;;6.33;2.60;;;;;;;8.50;39.57;99848.25;5050804;28;20056;-77
2022/05/05 01:14:06;;;;;;;4.13;2.57;;;;;;;8.44;39.96;99837.41;5000611;28;20083;-76
2022/05/05 01:16:32;;;;;;;5.53;2.30;;;;;;;8.49;39.84;99838.66;5032607;28;20090;-76
2022/05/05 01:18:58;;;;;;;5.27;2.50;;;;;;;8.42;40.25;99850.78;5000940;28;20052;-76
2022/05/05 01:21:24;;;;;;;5.40;2.57;;;;;;;8.40;39.97;99851.88;5017012;28;20052;-76
2022/05/05 01:23:49;;;;;;;3.53;2.50;;;;;;;8.39;40.13;99855.50;5016537;28;20516;-75
2022/05/05 01:29:01;;;;;;;4.83;2.47;;;;;;;8.50;39.98;99855.38;5047989;28;20045;-74
2022/05/05 01:31:26;;;;;;;4.33;2.73;;;;;;;8.38;39.76;99848.53;5031857;28;20052;-76
2022/05/05 01:33:52;;;;;;;4.00;2.40;;;;;;;8.44;40.02;99856.75;5032380;28;20041;-76
2022/05/05 01:36:18;;;;;;;4.43;2.53;;;;;;;8.42;39.54;99863.16;5048628;28;20098;-76
2022/05/05 01:38:44;;;;;;;6.53;2.80;;;;;;;8.41;39.89;99864.16;5031056;28;20056;-73
2022/05/05 01:41:12;;;;;;;3.93;2.57;;;;;;;8.52;40.25;99870.13;5014207;28;20052;-74
2022/05/05 01:43:39;;;;;;;5.50;2.90;;;;;;;8.58;39.97;99887.25;5049430;28;20045;-73
2022/05/05 01:46:05;;;;;;;7.50;2.70;;;;;;;8.41;40.16;99882.69;5016111;28;20041;-77
2022/05/05 01:48:32;;;;;;;4.23;2.73;;;;;;;8.51;39.81;99886.16;5016115;28;20524;-75
2022/05/05 01:50:58;;;;;;;7.23;2.40;;;;;;;8.42;40.16;99892.28;5032868;28;20520;-76
2022/05/05 01:53:24;;;;;;;3.20;2.70;;;;;;;8.44;40.00;99888.50;5032457;28;20056;-75
2022/05/05 01:55:52;;;;;;;8.83;3.30;;;;;;;8.42;39.85;99897.56;5032490;28;20041;-75
2022/05/05 01:58:19;;;;;;;8.13;3.17;;;;;;;8.40;40.04;99899.53;5033115;28;20044;-73
2022/05/05 02:00:47;;;;;;;5.80;3.00;;;;;;;8.41;40.00;99903.84;5015960;28;20056;-78
2022/05/05 02:03:12;;;;;;;11.20;4.00;;;;;;;8.43;39.82;99899.25;5032428;28;20060;-77
2022/05/05 02:05:42;;;;;;;8.70;3.20;;;;;;;8.72;39.65;99912.50;5016044;28;20045;-74
2022/05/05 02:08:09;;;;;;;7.70;2.78;;;;;;;8.51;39.94;99918.78;5049859;28;20048;-76
2022/05/05 02:10:36;;;;;;;5.33;3.20;;;;;;;8.31;40.04;99881.81;5032117;28;20048;-75
2022/05/05 02:13:02;;;;;;;4.03;2.97;;;;;;;8.39;40.20;99914.53;5050493;28;20438;-72
2022/05/05 02:15:30;;;;;;;6.37;3.07;;;;;;;8.35;40.03;99918.47;5033553;28;20036;-76
2022/05/05 02:17:56;;;;;;;8.10;3.20;;;;;;;8.19;40.14;99889.03;5038409;28;20060;-75
2022/05/05 02:20:22;;;;;;;9.17;2.90;;;;;;;8.40;40.08;99929.47;5037783;28;20942;-76
2022/05/05 02:22:48;;;;;;;4.67;2.90;;;;;;;8.38;40.19;99935.84;5050019;28;20140;-75
2022/05/05 02:25:13;;;;;;;8.27;3.07;;;;;;;8.17;40.10;99898.06;5017507;28;20389;-75
2022/05/05 02:27:46;;;;;;;7.97;3.03;;;;;;;8.63;39.76;99926.56;5031776;28;20143;-74
2022/05/05 02:30:12;;;;;;;5.07;3.10;;;;;;;8.38;40.01;99931.41;5033526;28;20069;-75
2022/05/05 02:32:37;;;;;;;4.43;2.90;;;;;;;8.37;39.72;99931.56;5034766;28;20076;-74
2022/05/05 02:35:03;;;;;;;4.20;3.00;;;;;;;8.39;39.92;99932.25;5016182;28;20040;-73
2022/05/05 02:40:13;;;;;;;4.33;2.83;;;;;;;8.41;39.57;99949.66;5021516;28;20041;-74
2022/05/05 02:42:39;;;;;;;8.30;2.93;;;;;;;8.38;39.61;99944.66;5035889;28;20052;-76
2022/05/05 02:45:05;;;;;;;6.17;3.40;;;;;;;8.57;39.39;99954.44;5054006;28;20515;-75
2022/05/05 02:47:31;;;;;;;7.30;3.13;;;;;;;8.55;39.21;99951.91;5035753;28;20113;-75
2022/05/05 02:49:56;;;;;;;7.03;3.30;;;;;;;8.62;39.63;99962.81;5035488;28;20048;-76
2022/05/05 02:52:22;;;;;;;6.17;3.20;;;;;;;8.68;39.21;99961.41;5035820;28;20454;-76
2022/05/05 02:54:50;;;;;;;6.07;3.00;;;;;;;8.52;39.00;99938.09;5035527;28;20048;-78
2022/05/05 02:57:18;;;;;;;6.20;2.97;;;;;;;8.86;38.69;99972.97;5019414;28;20037;-76
2022/05/05 02:59:44;;;;;;;6.43;2.50;;;;;;;8.76;38.54;99975.63;5035162;28;20052;-75
2022/05/05 03:02:10;;;;;;;5.37;2.70;;;;;;;8.74;38.46;99966.13;5053038;28;20041;-75
2022/05/05 03:04:36;;;;;;;5.13;2.73;;;;;;;8.81;38.71;99983.16;5036054;28;20041;-74
2022/05/05 03:07:01;;;;;;;7.73;2.60;;;;;;;8.82;38.63;99972.44;5054726;28;20484;-75
2022/05/05 03:09:27;;;;;;;4.70;2.47;;;;;;;8.68;38.40;99946.34;5020195;28;20048;-75
2022/05/05 03:11:53;;;;;;;7.57;2.60;;;;;;;8.78;38.36;99960.44;5035970;28;20041;-74
2022/05/05 03:14:18;;;;;;;4.83;2.73;;;;;;;8.96;38.16;99987.06;5034825;28;20040;-77
2022/05/05 03:16:44;;;;;;;3.83;2.37;;;;;;;9.04;38.25;99989.88;5034066;28;20548;-75
2022/05/05 03:19:10;;;;;;;6.03;2.37;;;;;;;9.01;37.98;99985.66;5034360;28;20051;-77
2022/05/05 03:21:37;;;;;;;4.43;2.50;;;;;;;9.03;38.03;99983.72;5018444;28;20072;-75
2022/05/05 03:24:04;;;;;;;5.10;2.47;;;;;;;9.25;37.74;99990.53;5035088;28;20492;-76
2022/05/05 03:26:30;;;;;;;4.93;2.40;;;;;;;9.15;37.69;99992.38;5034624;28;20114;-77
2022/05/05 03:28:56;;;;;;;3.40;2.30;;;;;;;9.25;37.53;99990.53;5001601;28;20834;-78
2022/05/05 03:31:22;;;;;;;5.00;2.33;;;;;;;9.04;37.56;99985.38;5034395;28;20084;-75
2022/05/05 03:33:48;;;;;;;2.87;2.20;;;;;;;9.20;37.30;99985.66;5039971;28;20151;-76
2022/05/05 03:36:14;;;;;;;5.20;2.50;;;;;;;9.33;37.27;100004.75;5017789;28;20048;-75
2022/05/05 03:38:40;;;;;;;8.10;2.17;;;;;;;9.17;36.92;99996.56;5017817;28;20041;-75
2022/05/05 03:41:05;;;;;;;2.23;1.90;;;;;;;9.27;37.13;100023.06;5035122;28;20045;-76
2022/05/05 03:43:32;;;;;;;4.27;2.37;;;;;;;9.52;36.82;100022.44;5068027;28;20047;-77
2022/05/05 03:45:58;;;;;;;2.60;2.10;;;;;;;9.47;36.71;100022.06;5034988;28;20576;-78
2022/05/05 03:48:24;;;;;;;3.57;2.10;;;;;;;9.49;36.58;100023.56;5002231;28;20087;-74
2022/05/05 03:50:49;;;;;;;6.40;1.80;;;;;;;9.51;36.31;100024.28;5051064;28;20570;-76
2022/05/05 03:53:15;;;;;;;3.87;1.80;;;;;;;9.66;36.02;100030.81;5020031;28;20041;-75
2022/05/05 03:55:41;;;;;;;3.20;2.20;;;;;;;9.74;36.00;100038.91;5036325;28;20094;-75
2022/05/05 03:58:06;;;;;;;4.40;2.10;;;;;;;9.74;35.86;100032.75;5054056;28;20763;-76
2022/05/05 04:00:32;;;;;;;3.23;2.00;;;;;;;9.71;35.66;100033.88;5001668;28;20111;-75
2022/05/05 04:05:42;;;;;;;4.67;1.90;;;;;;;9.80;35.58;100050.75;5053707;28;20047;-74
2022/05/05 04:08:08;;;;;;;5.07;2.10;;;;;;;9.88;35.36;100037.59;5034600;28;20041;-73
2022/05/05 04:10:33;;;;;;;4.67;1.93;;;;;;;10.02;35.25;100042.44;5017679;28;20045;-74
2022/05/05 04:12:59;;;;;;;7.83;3.00;;;;;;;10.09;34.87;100048.88;5033616;28;20426;-74
2022/05/05 04:15:25;;;;;;;2.63;2.00;;;;;;;10.14;34.92;100065.22;5001033;28;20590;-72
2022/05/05 04:17:51;;;;;;;6.10;2.27;;;;;;;10.21;34.74;100061.81;5033597;28;20501;-75
2022/05/05 04:20:19;;;;;;;2.60;2.17;;;;;;;10.33;34.70;100067.81;5018209;28;20036;-73
2022/05/05 04:22:45;;;;;;;11.60;2.17;;;;;;;10.05;34.75;100028.88;5034400;28;20047;-73
2022/05/05 04:25:16;;;;;;;2.70;1.80;;;;;;;9.98;34.64;100067.59;5051235;28;20041;-69
2022/05/05 04:27:45;;;;;;;4.45;2.35;;;;;;;10.33;34.52;100080.22;5033054;28;20425;-66
2022/05/05 04:30:13;;;;;;;3.20;2.10;;;;;;;10.41;34.45;100067.06;5033315;28;20056;-66
2022/05/05 04:32:39;;;;;;;5.93;1.90;;;;;;;10.30;34.17;100073.41;5033384;28;20055;-66
2022/05/05 04:35:07;;;;;;;5.50;1.83;;;;;;;10.61;33.71;100082.75;5050363;28;20044;-66
2022/05/05 04:37:33;;;;;;;4.97;1.93;;;;;;;10.47;33.65;100083.22;5049932;28;20048;-68
2022/05/05 04:39:59;;;;;;;6.37;2.17;;;;;;;10.58;34.09;100083.03;5050180;28;20102;-66
2022/05/05 04:42:27;;;;;;;4.03;2.00;;;;;;;10.49;33.29;100068.00;5050923;28;20054;-67
2022/05/05 04:44:53;;;;;;;3.67;2.05;;;;;;;10.74;33.02;100096.53;5051760;28;20131;-66
2022/05/05 04:47:19;;;;;;;2.50;1.88;;;;;;;10.81;32.61;100099.44;5049782;28;20131;-66
2022/05/05 04:49:45;;;;;;;7.55;2.42;;;;;;;10.82;32.45;100080.69;5016855;28;20037;-66
2022/05/05 04:52:10;;;;;;;6.70;1.85;;;;;;;10.86;31.92;100091.84;5050789;28;20036;-66
2022/05/05 04:54:36;;;;;;;7.15;2.25;;;;;;;10.99;31.41;100098.50;5033113;28;20043;-66
2022/05/05 04:57:02;;;;;;;3.65;1.80;;;;;;;11.00;31.48;100094.84;5048849;28;20152;-66
2022/05/05 04:59:29;;;;;;;2.38;1.80;;;;;;;10.83;31.17;100062.91;5015006;28;20076;-66
2022/05/05 05:01:54;;;;;;;2.67;1.55;;;;;;;10.91;30.68;100105.53;5028929;28;20124;-66
2022/05/05 05:04:20;;;;;;;2.35;1.90;;;;;;;10.89;30.67;100096.84;5011023;28;20466;-67
2022/05/05 05:06:46;;;;;;;2.63;1.70;;;;;;;10.88;30.39;100074.78;5011312;28;20045;-66
2022/05/05 05:09:11;;;;;;;5.07;1.60;;;;;;;11.16;30.47;100104.81;5041571;28;20043;-65
2022/05/05 05:11:37;;;;;;;2.95;1.63;;;;;;;11.21;29.70;100103.38;5049016;28;20397;-66
2022/05/05 05:14:03;;;;;;;2.05;1.55;;;;;;;11.41;29.55;100112.88;5030637;28;20427;-66
2022/05/05 05:16:29;;;;;;;2.92;1.60;;;;;;;11.42;29.55;100105.75;5032038;28;20060;-67
2022/05/05 05:18:55;;;;;;;2.78;1.70;;;;;;;11.46;29.06;100115.06;5031790;28;20103;-67
2022/05/05 05:21:20;;;;;;;2.58;1.60;;;;;;;11.40;28.06;100118.34;5031662;28;20120;-67
2022/05/05 05:23:46;;;;;;;3.17;1.40;;;;;;;11.68;27.80;100117.31;5047740;28;20131;-65
2022/05/05 05:26:13;;;;;;;2.40;1.50;;;;;;;11.80;27.66;100122.25;5048050;28;20043;-65
2022/05/05 05:28:42;;;;;;;4.45;1.50;;;;;;;12.09;26.91;100119.28;5029452;28;20037;-66
2022/05/05 05:31:08;;;;;;;6.43;1.48;;;;;;;12.08;26.61;100119.44;5029380;28;20095;-67
2022/05/05 05:33:34;;;;;;;1.73;1.40;;;;;;;12.09;26.30;100100.66;5046530;28;20367;-66
2022/05/05 05:36:00;;;;;;;2.42;1.30;;;;;;;12.33;26.61;100127.44;5028971;28;20075;-67
2022/05/05 05:38:26;;;;;;;1.45;1.20;;;;;;;12.50;25.63;100131.88;5030496;28;20132;-67
2022/05/05 05:40:52;;;;;;;1.73;1.40;;;;;;;12.61;25.06;100134.25;5032067;28;20069;-66
2022/05/05 05:43:18;;;;;;;1.30;1.10;;;;;;;12.66;25.23;100139.97;5015300;28;20421;-67
2022/05/05 05:45:44;;;;;;;9.93;1.55;;;;;;;12.70;24.68;100133.31;5031267;28;20052;-66
2022/05/05 05:48:09;;;;;;;1.90;1.20;;;;;;;12.64;24.26;100106.47;5031514;28;20041;-67
2022/05/05 05:50:37;;;;;;;3.65;1.20;;;;;;;13.11;24.14;100148.53;5031990;28;20037;-67
2022/05/05 05:53:03;;;;;;;4.95;1.60;;;;;;;13.00;24.24;100121.31;5052659;28;20497;-66
2022/05/05 05:55:29;;;;;;;1.83;1.27;;;;;;;13.16;23.98;100154.19;5018376;28;20045;-67
2022/05/05 05:57:55;;;;;;;5.38;1.10;;;;;;;13.08;23.68;100148.84;5035062;28;20056;-66
2022/05/05 06:00:20;;;;;;;1.50;1.10;;;;;;;12.99;23.67;100119.59;5035310;28;20047;-67
2022/05/05 06:05:30;;;;;;;1.35;1.25;;;;;;;13.39;23.31;100149.91;5037305;28;20037;-66
2022/05/05 06:08:00;;;;;;;1.73;1.20;;;;;;;13.55;23.18;100157.97;5035098;28;20049;-66
2022/05/05 06:10:27;;;;;;;2.03;1.50;;;;;;;13.74;23.01;100156.81;5018698;28;20515;-68
2022/05/05 06:12:53;;;;;;;4.95;1.30;;;;;;;13.85;22.83;100153.00;5052531;28;20087;-68
2022/05/05 06:15:19;;;;;;;9.13;1.30;;;;;;;13.90;21.74;100156.00;5052666;28;20393;-70
2022/05/05 06:17:45;;;;;;;2.38;1.30;;;;;;;13.48;21.62;100154.25;4984866;28;20068;-72
2022/05/05 06:20:11;;;;;;;6.55;1.10;;;;;;;13.45;20.91;100138.59;5034925;28;20444;-70
2022/05/05 06:22:37;;;;;;;4.38;1.30;;;;;;;13.59;21.09;100175.31;5017658;28;20416;-69
2022/05/05 06:25:04;;;;;;;2.78;0.90;;;;;;;13.64;20.91;100168.66;5002053;28;20049;-75
2022/05/05 06:27:30;;;;;;;1.35;0.95;;;;;;;13.54;21.14;100158.13;5000808;28;20435;-75
2022/05/05 06:29:56;;;;;;;2.65;1.20;;;;;;;13.77;21.20;100169.00;5033311;28;20160;-76
2022/05/05 06:32:22;;;;;;;2.45;1.10;;;;;;;13.87;20.46;100173.16;5033715;28;20041;-76
2022/05/05 06:34:47;;;;;;;2.63;0.98;;;;;;;14.03;20.11;100173.19;5051528;28;20045;-76
2022/05/05 06:37:13;;;;;;;2.25;0.90;;;;;;;14.15;19.84;100171.00;5000993;28;20100;-76
2022/05/05 06:39:39;;;;;;;4.72;1.00;;;;;;;14.47;19.52;100168.31;5033743;28;20033;-75
2022/05/05 06:42:05;;;;;;;4.40;1.08;;;;;;;14.74;19.07;100167.94;5017882;28;20041;-77
2022/05/05 06:44:32;;;;;;;2.22;1.20;;;;;;;15.30;18.39;100174.91;5002432;28;20067;-76
2022/05/05 06:46:59;;;;;;;2.33;0.90;;;;;;;15.76;18.41;100176.69;5034297;28;20583;-76
2022/05/05 06:49:25;;;;;;;1.98;1.00;;;;;;;16.27;17.25;100182.09;5035126;28;20519;-76
2022/05/05 06:51:51;;;;;;;2.08;1.00;;;;;;;16.70;16.69;100181.38;5051215;28;20033;-75
2022/05/05 06:54:17;;;;;;;5.30;1.20;;;;;;;17.06;16.26;100186.00;5034749;28;20049;-75
2022/05/05 06:56:43;;;;;;;2.08;1.00;;;;;;;17.26;16.16;100162.94;5034943;28;20072;-75
2022/05/05 06:59:08;;;;;;;1.23;1.02;;;;;;;17.30;16.17;100180.34;5019715;28;20118;-76
2022/05/05 07:01:52;;;;;;;1.92;1.05;;;;;;;17.06;16.09;100184.16;5035874;28;20045;-76
2022/05/05 07:07:13;;;;;;;0.90;0.90;;;;;;;17.04;16.17;100194.25;5033984;28;20052;-74
2022/05/05 07:12:24;;;;;;;2.05;1.00;;;;;;;17.19;15.56;100194.25;5049871;28;20052;-75
2022/05/05 07:14:50;;;;;;;1.73;0.88;;;;;;;17.87;15.14;100206.25;5017047;28;20063;-76
2022/05/05 07:17:16;;;;;;;3.17;0.90;;;;;;;17.93;14.54;100197.41;5000517;28;20060;-75
2022/05/05 07:19:41;;;;;;;3.38;1.00;;;;;;;19.46;13.55;100184.69;5018530;28;20048;-75
2022/05/05 07:22:08;;;;;;;1.50;1.00;;;;;;;22.13;11.92;100198.84;5034031;28;20045;-76
2022/05/05 07:24:33;;;;;;;1.45;1.20;;;;;;;24.76;9.79;100200.72;5034087;28;20045;-76
2022/05/05 07:27:01;;;;;;;5.50;1.17;;;;;;;27.15;7.89;100177.47;5033276;28;20044;-77
2022/05/05 07:29:27;;;;;;;7.38;1.48;;;;;;;29.37;7.00;100208.56;5034065;28;20637;-76
2022/05/05 07:31:53;;;;;;;4.63;1.20;;;;;;;31.24;5.93;100204.97;5052146;28;20354;-76
2022/05/05 07:34:19;;;;;;;3.97;1.33;;;;;;;32.66;5.07;100189.06;5033838;28;20051;-76
2022/05/05 07:36:45;;;;;;;2.08;1.20;;;;;;;33.72;4.54;100197.00;5033307;28;20048;-77
2022/05/05 07:39:11;;;;;;;8.02;1.10;;;;;;;34.46;4.40;100196.19;4985039;28;20500;-76
2022/05/05 07:41:37;;;;;;;3.75;1.08;;;;;;;34.83;3.56;100185.06;5017241;28;20064;-75
2022/05/05 07:44:05;;;;;;;3.30;1.17;;;;;;;34.81;3.58;100201.13;5017488;28;20048;-75
2022/05/05 07:46:35;;;;;;;5.68;0.90;;;;;;;35.04;3.54;100180.03;5017993;28;20045;-76
2022/05/05 07:49:05;;;;;;;4.13;1.05;;;;;;;35.53;3.00;100194.78;5050730;28;20055;-75
2022/05/05 07:51:31;;;;;;;;;;;;;;;36.16;2.49;100193.94;5034694;28;20037;-75
2022/05/05 07:56:42;;;;;;;3.67;0.93;;;;;;;37.70;2.02;100204.00;5035661;28;20468;-76
2022/05/05 07:59:07;;;;;;;2.35;1.00;;;;;;;37.52;1.78;100172.59;5051238;28;20036;-77
2022/05/05 08:01:33;;;;;;;3.22;1.00;;;;;;;37.04;1.89;100188.41;5017042;28;20049;-76
2022/05/05 08:03:59;;;;;;;4.70;1.00;;;;;;;37.46;1.91;100186.97;5032806;28;20051;-75
2022/05/05 08:06:25;;;;;;;4.07;1.08;;;;;;;38.41;1.85;100187.56;5000113;28;20040;-77
2022/05/05 08:08:50;;;;;;;4.88;1.05;;;;;;;38.67;1.35;100196.69;5032796;28;20045;-77
2022/05/05 08:11:16;;;;;;;3.17;0.90;;;;;;;39.13;1.12;100193.16;5032150;28;20040;-76
2022/05/05 08:13:42;;;;;;;4.07;1.00;;;;;;;39.14;1.18;100185.63;5032350;28;20105;-75
2022/05/05 08:16:08;;;;;;;3.53;0.95;;;;;;;39.37;0.90;100168.34;4983627;28;20049;-76
2022/05/05 08:18:33;;;;;;;2.55;0.90;;;;;;;39.90;0.78;100176.06;5016602;28;20567;-77
2022/05/05 08:20:59;;;;;;;3.55;1.10;;;;;;;40.43;0.84;100197.59;5032632;28;20097;-76
2022/05/05 08:23:26;;;;;;;4.63;0.90;;;;;;;41.17;0.35;100187.94;5016662;28;20136;-76
2022/05/05 08:28:36;;;;;;;3.60;1.30;;;;;;;42.22;0.00;100184.94;5063241;28;20098;-76
2022/05/05 08:31:03;;;;;;;7.30;1.40;;;;;;;42.20;0.04;100184.47;5069734;28;20174;-76
2022/05/05 08:33:29;;;;;;;5.85;1.10;;;;;;;42.02;0.19;100168.38;5054409;28;20491;-76
2022/05/05 08:35:56;;;;;;;5.72;1.25;;;;;;;42.08;0.00;100173.34;5037509;28;20040;-77
2022/05/05 08:38:23;;;;;;;3.83;1.30;;;;;;;40.51;0.37;100197.50;5053382;28;20047;-76
2022/05/05 08:40:49;;;;;;;2.08;0.90;;;;;;;38.88;0.56;100190.44;5003035;28;20060;-76
2022/05/05 08:43:14;;;;;;;1.23;1.10;;;;;;;39.07;0.73;100196.44;5019518;28;20111;-75
2022/05/05 08:45:40;;;;;;;1.13;0.90;;;;;;;39.80;0.74;100188.38;5053483;28;20527;-76
2022/05/05 08:48:11;;;;;;;2.20;1.10;;;;;;;40.48;0.61;100181.47;5052702;28;20052;-76
2022/05/05 08:50:38;;;;;;;1.92;1.08;;;;;;;41.28;0.34;100191.91;5053797;28;20232;-76
2022/05/05 08:53:06;;;;;;;5.20;1.00;;;;;;;42.05;0.00;100179.66;5022656;28;20431;-76
2022/05/05 08:55:32;;;;;;;2.25;1.15;;;;;;;43.15;0.01;100173.16;5057388;28;20044;-76
2022/05/05 08:57:59;;;;;;;3.83;0.98;;;;;;;43.60;0.00;100170.69;5041957;28;20064;-76
2022/05/05 09:00:27;;;;;;;1.73;1.20;;;;;;;43.80;0.00;100161.16;5059730;28;20106;-76
2022/05/05 09:02:56;;;;;;;5.72;1.10;;;;;;;44.17;0.00;100172.78;5058960;28;20040;-76
2022/05/05 09:05:43;;;;;;;5.47;1.05;;;;;;;44.02;0.00;100165.25;5024083;28;20095;-77
2022/05/05 09:08:30;;;;;;;5.07;1.40;;;;;;;43.79;0.00;100169.91;5054383;28;20040;-77
2022/05/05 09:10:58;;;;;;;6.43;1.20;;;;;;;44.05;0.00;100165.34;5036251;28;20044;-76
2022/05/05 09:13:25;;;;;;;11.75;1.73;;;;;;;44.15;0.00;100166.75;5034728;28;20123;-77
2022/05/05 09:15:51;;;;;;;2.83;0.90;;;;;;;44.44;0.00;100160.56;5051845;28;20480;-76
2022/05/05 09:18:18;;;;;;;9.02;0.93;;;;;;;44.54;0.00;100168.34;5035073;28;20055;-76
2022/05/05 09:20:45;;;;;;;3.55;0.98;;;;;;;43.20;0.00;100164.50;5036620;28;20043;-76
2022/05/05 09:23:37;;;;;;;7.00;1.30;;;;;;;41.14;0.00;100163.56;5053314;28;20044;-75
2022/05/05 09:26:04;;;;;;;4.68;1.20;;;;;;;40.43;0.40;100166.97;5035656;28;20527;-76
2022/05/05 09:28:37;;;;;;;4.63;1.48;;;;;;;39.55;0.45;100160.75;5068490;28;20474;-76
2022/05/05 09:31:08;;;;;;;5.53;1.25;;;;;;;39.81;0.88;100144.69;5051604;28;20408;-76
2022/05/05 09:33:36;;;;;;;6.05;1.70;;;;;;;40.15;0.46;100178.63;5035248;28;20075;-75
2022/05/05 09:36:04;;;;;;;11.50;1.50;;;;;;;40.51;0.43;100180.78;5051572;28;20093;-76
2022/05/05 09:38:50;;;;;;;2.30;1.15;;;;;;;40.77;0.00;100173.00;5034741;28;20420;-77
2022/05/05 09:41:17;;;;;;;4.63;1.33;;;;;;;41.67;0.15;100174.47;5034928;28;20091;-76
2022/05/05 09:43:45;;;;;;;2.05;1.10;;;;;;;42.01;0.00;100148.00;5035842;28;20064;-76
2022/05/05 09:46:23;;;;;;;4.43;1.30;;;;;;;42.80;0.00;100175.03;5019105;28;20037;-77
2022/05/05 09:48:49;;;;;;;4.55;1.48;;;;;;;42.98;0.00;100167.94;5034314;28;20071;-76
2022/05/05 09:51:16;;;;;;;2.45;0.90;;;;;;;42.71;0.00;100166.81;5069387;28;20454;-76
2022/05/05 09:59:29;;;;;;;3.25;1.15;;;;;;;42.90;0.00;100168.91;5051870;28;20508;-71
2022/05/05 10:02:04;;;;;;;7.50;1.30;;;;;;;43.35;0.00;100169.25;5068688;28;20446;-71
2022/05/05 10:04:32;;;;;;;4.22;1.30;;;;;;;44.12;0.00;100170.25;5035345;28;20151;-70
2022/05/05 10:07:02;;;;;;;9.52;1.17;;;;;;;44.09;0.00;100160.63;5050937;28;20135;-70
2022/05/05 10:09:28;;;;;;;6.32;1.20;;;;;;;44.13;0.00;100161.53;5068283;28;20159;-72
2022/05/05 10:11:54;;;;;;;3.35;1.20;;;;;;;44.20;0.00;100158.84;5049771;28;20088;-70
2022/05/05 10:14:22;;;;;;;5.55;0.93;;;;;;;44.55;0.00;100148.34;5067528;28;20041;-70
2022/05/05 10:16:48;;;;;;;6.35;1.17;;;;;;;44.57;0.00;100162.81;5068411;28;20084;-71
2022/05/05 10:19:15;;;;;;;2.53;1.25;;;;;;;44.47;0.00;100163.41;5050472;28;20067;-70
2022/05/05 10:21:46;;;;;;;3.38;1.05;;;;;;;44.37;0.00;100157.59;5034396;28;20037;-71
2022/05/05 10:24:17;;;;;;;3.15;1.20;;;;;;;43.79;0.00;100156.75;5068986;28;20056;-71
2022/05/05 10:26:49;;;;;;;5.75;1.17;;;;;;;43.50;0.00;100162.06;5068853;28;20082;-71
2022/05/05 10:29:35;;;;;;;6.60;1.77;;;;;;;43.82;0.00;100167.22;5033585;28;20119;-71
2022/05/05 10:32:24;;;;;;;5.85;1.10;;;;;;;44.04;0.00;100168.50;5049641;28;20040;-71
2022/05/05 10:34:54;;;;;;;5.07;1.25;;;;;;;43.28;0.00;100157.09;5033750;28;20046;-70
2022/05/05 10:37:31;;;;;;;4.85;1.33;;;;;;;41.52;0.00;100141.72;5050208;28;20044;-70
2022/05/05 10:39:57;;;;;;;4.80;1.10;;;;;;;41.00;0.18;100149.09;5071264;28;20064;-71
2022/05/05 10:42:29;;;;;;;5.85;1.10;;;;;;;41.04;0.11;100160.38;5020675;28;20135;-69
2022/05/05 10:45:05;;;;;;;1.75;0.95;;;;;;;40.90;0.00;100152.38;5071627;28;20067;-70
2022/05/05 10:47:55;;;;;;;4.45;1.10;;;;;;;41.13;0.00;100156.38;5071640;28;20147;-71
2022/05/05 10:50:43;;;;;;;3.00;1.10;;;;;;;41.05;0.00;100154.47;5071649;28;20040;-70
2022/05/05 10:53:31;;;;;;;3.60;0.90;;;;;;;41.09;0.05;100152.63;5053095;28;20055;-71
2022/05/05 10:56:00;;;;;;;2.65;0.90;;;;;;;40.67;0.08;100155.88;5053793;28;20576;-70
2022/05/05 10:59:02;;;;;;;4.18;1.10;;;;;;;40.33;0.00;100151.50;5037404;28;20677;-70
2022/05/05 11:01:31;;;;;;;5.40;1.10;;;;;;;40.21;0.56;100157.78;5071117;28;20040;-69
2022/05/05 11:04:04;;;;;;;2.33;1.10;;;;;;;40.38;0.35;100154.03;5053600;28;20101;-70
2022/05/05 11:06:32;;;;;;;4.57;0.93;;;;;;;40.11;0.23;100146.25;5070568;28;20036;-69
2022/05/05 11:09:01;;;;;;;7.70;1.02;;;;;;;38.14;0.78;100139.91;5055607;28;20499;-71
2022/05/05 11:11:42;;;;;;;5.78;1.10;;;;;;;37.26;1.10;100141.22;5070142;28;20051;-68
2022/05/05 11:23:10;;;;;;;2.85;1.23;;;;;;;31.70;3.11;100132.31;5056459;28;20504;-70
2022/05/05 11:25:43;;;;;;;4.22;1.20;;;;;;;30.81;3.76;100132.41;5036111;28;20048;-70
2022/05/05 11:28:10;;;;;;;2.85;1.20;;;;;;;29.83;4.31;100130.97;5070608;28;20102;-71
2022/05/05 11:30:41;;;;;;;10.15;1.40;;;;;;;29.13;4.54;100122.53;5069129;28;20581;-70
2022/05/05 11:33:09;;;;;;;7.75;1.80;;;;;;;28.40;4.99;100117.94;5070251;28;20424;-70
2022/05/05 11:35:35;;;;;;;7.32;1.92;;;;;;;27.64;5.28;100127.34;5070428;28;20048;-70
2022/05/05 11:38:01;;;;;;;3.15;1.33;;;;;;;27.14;5.55;100128.63;5069858;28;20048;-70
2022/05/05 11:40:34;;;;;;;6.20;1.60;;;;;;;26.55;5.49;100103.00;5052040;28;20094;-70
2022/05/05 11:45:56;;;;;;;5.53;1.58;;;;;;;25.81;6.36;100123.25;5051857;28;20089;-71
2022/05/05 11:48:21;;;;;;;4.22;1.30;;;;;;;25.29;6.36;100121.69;5050333;28;20453;-70
2022/05/05 11:50:47;;;;;;;2.10;1.50;;;;;;;24.74;6.64;100117.75;5066888;28;20098;-70
2022/05/05 11:53:23;;;;;;;2.83;1.33;;;;;;;24.24;7.07;100122.00;5051926;28;20044;-71
2022/05/05 11:55:59;;;;;;;2.55;1.17;;;;;;;23.75;7.49;100116.91;5052623;28;20492;-71
2022/05/05 12:04:03;;;;;;;15.07;1.40;;;;;;;22.22;8.79;100124.50;5001810;28;20041;-70
2022/05/05 12:06:30;;;;;;;6.00;1.60;;;;;;;21.88;8.94;100119.56;4999841;28;20444;-69
2022/05/05 12:08:58;;;;;;;2.95;1.17;;;;;;;21.37;8.90;100112.34;5032560;28;20040;-71
2022/05/05 12:11:28;;;;;;;3.50;1.10;;;;;;;21.14;9.39;100113.94;5049599;28;20037;-69
2022/05/05 12:14:06;;;;;;;3.90;1.00;;;;;;;20.91;9.90;100105.47;5031880;28;20044;-69
2022/05/05 12:16:37;;;;;;;4.57;1.20;;;;;;;20.79;9.81;100121.47;5032294;28;20151;-70
2022/05/05 12:19:14;;;;;;;3.95;1.45;;;;;;;20.75;9.83;100122.97;5032255;28;20040;-70
2022/05/05 12:21:53;;;;;;;3.72;1.15;;;;;;;20.66;10.11;100107.19;5031333;28;20124;-70
2022/05/05 12:24:22;;;;;;;2.58;1.40;;;;;;;19.95;10.41;100109.72;5032407;28;20040;-69